sensor_id;sensor_type;location;lat;lon;timestamp;temperature;humidity
55642;DHT22;41509;53.108;6.100;2023-08-06T00:00:19;14.60;99.90
55642;DHT22;41509;53.108;6.100;2023-08-06T00:02:45;14.60;99.90
55642;DHT22;41509;53.108;6.100;2023-08-06T00:05:11;14.60;99.90
55642;DHT22;41509;53.108;6.100;2023-08-06T00:07:36;14.60;99.90
55642;DHT22;41509;53.108;6.100;2023-08-06T00:10:02;14.60;99.90
55642;DHT22;41509;53.108;6.100;2023-08-06T00:12:28;14.60;99.90
55642;DHT22;41509;53.108;6.100;2023-08-06T00:14:53;14.60;99.90
55642;DHT22;41509;53.108;6.100;2023-08-06T00:17:19;14.60;99.90
55642;DHT22;41509;53.108;6.100;2023-08-06T00:19:45;14.60;99.90
55642;DHT22;41509;53.108;6.100;2023-08-06T00:22:11;14.60;99.90
55642;DHT22;41509;53.108;6.100;2023-08-06T00:24:36;14.60;99.90
55642;DHT22;41509;53.108;6.100;2023-08-06T00:27:02;14.70;99.90
55642;DHT22;41509;53.108;6.100;2023-08-06T00:29:28;14.70;99.90
55642;DHT22;41509;53.108;6.100;2023-08-06T00:31:54;14.70;99.90
55642;DHT22;41509;53.108;6.100;2023-08-06T00:34:20;14.60;99.90
55642;DHT22;41509;53.108;6.100;2023-08-06T00:36:46;14.70;99.90
55642;DHT22;41509;53.108;6.100;2023-08-06T00:39:11;14.70;99.90
55642;DHT22;41509;53.108;6.100;2023-08-06T00:41:37;14.60;99.90
55642;DHT22;41509;53.108;6.100;2023-08-06T00:44:03;14.70;99.90
55642;DHT22;41509;53.108;6.100;2023-08-06T00:46:29;14.70;99.90
55642;DHT22;41509;53.108;6.100;2023-08-06T00:48:56;14.70;99.90
55642;DHT22;41509;53.108;6.100;2023-08-06T00:51:22;14.70;99.90
55642;DHT22;41509;53.108;6.100;2023-08-06T00:53:49;14.70;99.90
55642;DHT22;41509;53.108;6.100;2023-08-06T00:56:15;14.70;99.90
55642;DHT22;41509;53.108;6.100;2023-08-06T00:58:41;14.70;99.90
55642;DHT22;41509;53.108;6.100;2023-08-06T01:01:07;14.70;99.90
55642;DHT22;41509;53.108;6.100;2023-08-06T01:03:33;14.70;99.90
55642;DHT22;41509;53.108;6.100;2023-08-06T01:05:59;14.70;99.90
55642;DHT22;41509;53.108;6.100;2023-08-06T01:08:44;14.70;99.90
55642;DHT22;41509;53.108;6.100;2023-08-06T01:11:42;14.70;99.90
55642;DHT22;41509;53.108;6.100;2023-08-06T01:14:18;14.70;99.90
55642;DHT22;41509;53.108;6.100;2023-08-06T01:16:48;14.70;99.90
55642;DHT22;41509;53.108;6.100;2023-08-06T01:19:18;14.70;99.90
55642;DHT22;41509;53.108;6.100;2023-08-06T01:21:44;14.70;99.90
55642;DHT22;41509;53.108;6.100;2023-08-06T01:24:10;14.70;99.90
55642;DHT22;41509;53.108;6.100;2023-08-06T01:26:42;14.70;99.90
55642;DHT22;41509;53.108;6.100;2023-08-06T01:31:48;14.70;99.90
55642;DHT22;41509;53.108;6.100;2023-08-06T01:34:17;14.70;99.90
55642;DHT22;41509;53.108;6.100;2023-08-06T01:36:46;14.70;99.90
55642;DHT22;41509;53.108;6.100;2023-08-06T01:39:12;14.70;99.90
55642;DHT22;41509;53.108;6.100;2023-08-06T01:41:37;14.70;99.90
55642;DHT22;41509;53.108;6.100;2023-08-06T01:44:03;14.70;99.90
55642;DHT22;41509;53.108;6.100;2023-08-06T01:46:29;14.70;99.90
55642;DHT22;41509;53.108;6.100;2023-08-06T01:48:54;14.70;99.90
55642;DHT22;41509;53.108;6.100;2023-08-06T01:51:20;14.70;99.90
55642;DHT22;41509;53.108;6.100;2023-08-06T01:53:46;14.80;99.90
55642;DHT22;41509;53.108;6.100;2023-08-06T01:56:11;14.80;99.90
55642;DHT22;41509;53.108;6.100;2023-08-06T01:58:37;14.80;99.90
55642;DHT22;41509;53.108;6.100;2023-08-06T02:01:03;14.70;99.90
55642;DHT22;41509;53.108;6.100;2023-08-06T02:03:28;14.80;99.90
55642;DHT22;41509;53.108;6.100;2023-08-06T02:05:55;14.80;99.90
55642;DHT22;41509;53.108;6.100;2023-08-06T02:08:20;14.80;99.90
55642;DHT22;41509;53.108;6.100;2023-08-06T02:10:46;14.80;99.90
55642;DHT22;41509;53.108;6.100;2023-08-06T02:13:12;14.80;99.90
55642;DHT22;41509;53.108;6.100;2023-08-06T02:15:44;14.80;99.90
55642;DHT22;41509;53.108;6.100;2023-08-06T02:18:13;14.80;99.90
55642;DHT22;41509;53.108;6.100;2023-08-06T02:20:38;14.80;99.90
55642;DHT22;41509;53.108;6.100;2023-08-06T02:23:04;14.80;99.90
55642;DHT22;41509;53.108;6.100;2023-08-06T02:25:30;14.80;99.90
55642;DHT22;41509;53.108;6.100;2023-08-06T02:27:55;14.70;99.90
55642;DHT22;41509;53.108;6.100;2023-08-06T02:30:21;14.70;99.90
55642;DHT22;41509;53.108;6.100;2023-08-06T02:32:47;14.70;99.90
55642;DHT22;41509;53.108;6.100;2023-08-06T02:35:12;14.70;99.90
55642;DHT22;41509;53.108;6.100;2023-08-06T02:37:38;14.70;99.90
55642;DHT22;41509;53.108;6.100;2023-08-06T02:40:04;14.70;99.90
55642;DHT22;41509;53.108;6.100;2023-08-06T02:42:30;14.70;99.90
55642;DHT22;41509;53.108;6.100;2023-08-06T02:44:55;14.70;99.90
55642;DHT22;41509;53.108;6.100;2023-08-06T02:47:21;14.70;99.90
55642;DHT22;41509;53.108;6.100;2023-08-06T02:49:47;14.70;99.90
55642;DHT22;41509;53.108;6.100;2023-08-06T02:52:13;14.60;99.90
55642;DHT22;41509;53.108;6.100;2023-08-06T02:54:38;14.70;99.90
55642;DHT22;41509;53.108;6.100;2023-08-06T02:57:05;14.70;99.90
55642;DHT22;41509;53.108;6.100;2023-08-06T02:59:31;14.60;99.90
55642;DHT22;41509;53.108;6.100;2023-08-06T03:01:56;14.60;99.90
55642;DHT22;41509;53.108;6.100;2023-08-06T03:04:22;14.60;99.90
55642;DHT22;41509;53.108;6.100;2023-08-06T03:06:49;14.60;99.90
55642;DHT22;41509;53.108;6.100;2023-08-06T03:09:16;14.60;99.90
55642;DHT22;41509;53.108;6.100;2023-08-06T03:11:42;14.60;99.90
55642;DHT22;41509;53.108;6.100;2023-08-06T03:14:08;14.60;99.90
55642;DHT22;41509;53.108;6.100;2023-08-06T03:16:34;14.60;99.90
55642;DHT22;41509;53.108;6.100;2023-08-06T03:18:59;14.60;99.90
55642;DHT22;41509;53.108;6.100;2023-08-06T03:21:25;14.60;99.90
55642;DHT22;41509;53.108;6.100;2023-08-06T03:23:51;14.60;99.90
55642;DHT22;41509;53.108;6.100;2023-08-06T03:26:16;14.60;99.90
55642;DHT22;41509;53.108;6.100;2023-08-06T03:28:42;14.60;99.90
55642;DHT22;41509;53.108;6.100;2023-08-06T03:31:08;14.60;99.90
55642;DHT22;41509;53.108;6.100;2023-08-06T03:33:33;14.60;99.90
55642;DHT22;41509;53.108;6.100;2023-08-06T03:35:59;14.60;99.90
55642;DHT22;41509;53.108;6.100;2023-08-06T03:38:25;14.60;99.90
55642;DHT22;41509;53.108;6.100;2023-08-06T03:40:51;14.60;99.90
55642;DHT22;41509;53.108;6.100;2023-08-06T03:43:17;14.60;99.90
55642;DHT22;41509;53.108;6.100;2023-08-06T03:45:43;14.60;99.90
55642;DHT22;41509;53.108;6.100;2023-08-06T03:48:09;14.60;99.90
55642;DHT22;41509;53.108;6.100;2023-08-06T03:50:35;14.60;99.90
55642;DHT22;41509;53.108;6.100;2023-08-06T03:53:01;14.60;99.90
55642;DHT22;41509;53.108;6.100;2023-08-06T03:55:26;14.60;99.90
55642;DHT22;41509;53.108;6.100;2023-08-06T03:57:52;14.60;99.90
55642;DHT22;41509;53.108;6.100;2023-08-06T04:00:18;14.60;99.90
55642;DHT22;41509;53.108;6.100;2023-08-06T04:02:44;14.60;99.90
55642;DHT22;41509;53.108;6.100;2023-08-06T04:05:09;14.60;99.90
55642;DHT22;41509;53.108;6.100;2023-08-06T04:07:35;14.60;99.90
55642;DHT22;41509;53.108;6.100;2023-08-06T04:10:03;14.60;99.90
55642;DHT22;41509;53.108;6.100;2023-08-06T04:12:30;14.60;99.90
55642;DHT22;41509;53.108;6.100;2023-08-06T04:14:57;14.60;99.90
55642;DHT22;41509;53.108;6.100;2023-08-06T04:17:23;14.70;99.90
55642;DHT22;41509;53.108;6.100;2023-08-06T04:19:54;14.60;99.90
55642;DHT22;41509;53.108;6.100;2023-08-06T04:22:20;14.60;99.90
55642;DHT22;41509;53.108;6.100;2023-08-06T04:24:47;14.60;99.90
55642;DHT22;41509;53.108;6.100;2023-08-06T04:27:13;14.60;99.90
55642;DHT22;41509;53.108;6.100;2023-08-06T04:29:39;14.60;99.90
55642;DHT22;41509;53.108;6.100;2023-08-06T04:32:07;14.60;99.90
55642;DHT22;41509;53.108;6.100;2023-08-06T04:34:33;14.60;99.90
55642;DHT22;41509;53.108;6.100;2023-08-06T04:36:59;14.60;99.90
55642;DHT22;41509;53.108;6.100;2023-08-06T04:39:25;14.60;99.90
55642;DHT22;41509;53.108;6.100;2023-08-06T04:41:51;14.70;99.90
55642;DHT22;41509;53.108;6.100;2023-08-06T04:44:16;14.70;99.90
55642;DHT22;41509;53.108;6.100;2023-08-06T04:46:42;14.70;99.90
55642;DHT22;41509;53.108;6.100;2023-08-06T04:49:08;14.70;99.90
55642;DHT22;41509;53.108;6.100;2023-08-06T04:51:33;14.70;99.90
55642;DHT22;41509;53.108;6.100;2023-08-06T04:53:59;14.70;99.90
55642;DHT22;41509;53.108;6.100;2023-08-06T04:56:25;14.70;99.90
55642;DHT22;41509;53.108;6.100;2023-08-06T04:58:51;14.70;99.90
55642;DHT22;41509;53.108;6.100;2023-08-06T05:01:17;14.70;99.90
55642;DHT22;41509;53.108;6.100;2023-08-06T05:03:42;14.70;99.90
55642;DHT22;41509;53.108;6.100;2023-08-06T05:06:08;14.70;99.90
55642;DHT22;41509;53.108;6.100;2023-08-06T05:08:34;14.70;99.90
55642;DHT22;41509;53.108;6.100;2023-08-06T05:10:59;14.70;99.90
55642;DHT22;41509;53.108;6.100;2023-08-06T05:13:25;14.80;99.90
55642;DHT22;41509;53.108;6.100;2023-08-06T05:15:53;14.80;99.90
55642;DHT22;41509;53.108;6.100;2023-08-06T05:18:19;14.80;99.90
55642;DHT22;41509;53.108;6.100;2023-08-06T05:20:44;14.80;99.90
55642;DHT22;41509;53.108;6.100;2023-08-06T05:23:10;14.80;99.90
55642;DHT22;41509;53.108;6.100;2023-08-06T05:25:36;14.90;99.90
55642;DHT22;41509;53.108;6.100;2023-08-06T05:28:02;14.90;99.90
55642;DHT22;41509;53.108;6.100;2023-08-06T05:30:28;14.90;99.90
55642;DHT22;41509;53.108;6.100;2023-08-06T05:32:54;14.90;99.90
55642;DHT22;41509;53.108;6.100;2023-08-06T05:35:21;14.90;99.90
55642;DHT22;41509;53.108;6.100;2023-08-06T05:37:46;14.90;99.90
55642;DHT22;41509;53.108;6.100;2023-08-06T05:40:12;14.90;99.90
55642;DHT22;41509;53.108;6.100;2023-08-06T05:42:38;15.00;99.90
55642;DHT22;41509;53.108;6.100;2023-08-06T05:45:04;15.00;99.90
55642;DHT22;41509;53.108;6.100;2023-08-06T05:47:30;15.00;99.90
55642;DHT22;41509;53.108;6.100;2023-08-06T05:49:56;15.00;99.90
55642;DHT22;41509;53.108;6.100;2023-08-06T05:52:21;15.00;99.90
55642;DHT22;41509;53.108;6.100;2023-08-06T05:54:47;15.00;99.90
55642;DHT22;41509;53.108;6.100;2023-08-06T05:57:13;15.00;99.90
55642;DHT22;41509;53.108;6.100;2023-08-06T05:59:40;15.10;99.90
55642;DHT22;41509;53.108;6.100;2023-08-06T06:02:06;15.10;99.90
55642;DHT22;41509;53.108;6.100;2023-08-06T06:04:31;15.10;99.90
55642;DHT22;41509;53.108;6.100;2023-08-06T06:06:57;15.10;99.90
55642;DHT22;41509;53.108;6.100;2023-08-06T06:09:23;15.10;99.90
55642;DHT22;41509;53.108;6.100;2023-08-06T06:11:48;15.10;99.90
55642;DHT22;41509;53.108;6.100;2023-08-06T06:14:19;15.10;99.90
55642;DHT22;41509;53.108;6.100;2023-08-06T06:16:45;15.10;99.90
55642;DHT22;41509;53.108;6.100;2023-08-06T06:19:11;15.10;99.90
55642;DHT22;41509;53.108;6.100;2023-08-06T06:21:37;15.10;99.90
55642;DHT22;41509;53.108;6.100;2023-08-06T06:24:04;15.10;99.90
55642;DHT22;41509;53.108;6.100;2023-08-06T06:26:31;15.10;99.90
55642;DHT22;41509;53.108;6.100;2023-08-06T06:28:57;15.20;99.90
55642;DHT22;41509;53.108;6.100;2023-08-06T06:31:23;15.10;99.90
55642;DHT22;41509;53.108;6.100;2023-08-06T06:33:49;15.20;99.90
55642;DHT22;41509;53.108;6.100;2023-08-06T06:36:15;15.20;99.90
55642;DHT22;41509;53.108;6.100;2023-08-06T06:38:40;15.20;99.90
55642;DHT22;41509;53.108;6.100;2023-08-06T06:41:06;15.30;99.90
55642;DHT22;41509;53.108;6.100;2023-08-06T06:43:32;15.30;99.90
55642;DHT22;41509;53.108;6.100;2023-08-06T06:46:01;15.40;99.90
55642;DHT22;41509;53.108;6.100;2023-08-06T06:48:32;15.40;99.90
55642;DHT22;41509;53.108;6.100;2023-08-06T06:50:58;15.50;99.90
55642;DHT22;41509;53.108;6.100;2023-08-06T06:53:24;15.60;99.90
55642;DHT22;41509;53.108;6.100;2023-08-06T06:55:56;15.60;99.90
55642;DHT22;41509;53.108;6.100;2023-08-06T06:58:26;15.70;99.90
55642;DHT22;41509;53.108;6.100;2023-08-06T07:00:52;15.80;99.90
55642;DHT22;41509;53.108;6.100;2023-08-06T07:03:19;15.80;99.90
55642;DHT22;41509;53.108;6.100;2023-08-06T07:05:45;15.90;99.90
55642;DHT22;41509;53.108;6.100;2023-08-06T07:08:10;15.90;99.90
55642;DHT22;41509;53.108;6.100;2023-08-06T07:10:37;15.90;99.90
55642;DHT22;41509;53.108;6.100;2023-08-06T07:13:03;16.00;99.90
55642;DHT22;41509;53.108;6.100;2023-08-06T07:15:28;16.00;99.90
55642;DHT22;41509;53.108;6.100;2023-08-06T07:17:54;16.10;99.90
55642;DHT22;41509;53.108;6.100;2023-08-06T07:20:20;16.10;99.90
55642;DHT22;41509;53.108;6.100;2023-08-06T07:22:46;16.20;99.90
55642;DHT22;41509;53.108;6.100;2023-08-06T07:25:11;16.20;99.90
55642;DHT22;41509;53.108;6.100;2023-08-06T07:27:37;16.20;99.90
55642;DHT22;41509;53.108;6.100;2023-08-06T07:30:03;16.30;99.90
55642;DHT22;41509;53.108;6.100;2023-08-06T07:32:30;16.30;99.90
55642;DHT22;41509;53.108;6.100;2023-08-06T07:34:56;16.40;99.90
55642;DHT22;41509;53.108;6.100;2023-08-06T07:37:26;16.40;99.90
55642;DHT22;41509;53.108;6.100;2023-08-06T07:39:54;16.50;99.90
55642;DHT22;41509;53.108;6.100;2023-08-06T07:42:19;16.50;99.90
55642;DHT22;41509;53.108;6.100;2023-08-06T07:44:54;16.50;99.90
55642;DHT22;41509;53.108;6.100;2023-08-06T07:47:20;16.50;99.90
55642;DHT22;41509;53.108;6.100;2023-08-06T07:49:45;16.50;99.90
55642;DHT22;41509;53.108;6.100;2023-08-06T07:52:11;16.50;99.90
55642;DHT22;41509;53.108;6.100;2023-08-06T07:54:37;16.50;99.90
55642;DHT22;41509;53.108;6.100;2023-08-06T07:57:03;16.60;99.90
55642;DHT22;41509;53.108;6.100;2023-08-06T07:59:28;16.60;99.90
55642;DHT22;41509;53.108;6.100;2023-08-06T08:01:54;16.70;99.90
55642;DHT22;41509;53.108;6.100;2023-08-06T08:04:20;16.70;99.90
55642;DHT22;41509;53.108;6.100;2023-08-06T08:06:46;16.80;99.90
55642;DHT22;41509;53.108;6.100;2023-08-06T08:09:12;16.80;99.90
55642;DHT22;41509;53.108;6.100;2023-08-06T08:11:41;16.80;99.90
55642;DHT22;41509;53.108;6.100;2023-08-06T08:14:07;16.90;99.90
55642;DHT22;41509;53.108;6.100;2023-08-06T08:16:32;17.00;99.90
55642;DHT22;41509;53.108;6.100;2023-08-06T08:18:58;17.10;99.90
55642;DHT22;41509;53.108;6.100;2023-08-06T08:21:24;17.10;99.90
55642;DHT22;41509;53.108;6.100;2023-08-06T08:23:51;17.10;99.90
55642;DHT22;41509;53.108;6.100;2023-08-06T08:26:16;17.20;99.90
55642;DHT22;41509;53.108;6.100;2023-08-06T08:28:42;17.20;99.90
55642;DHT22;41509;53.108;6.100;2023-08-06T08:31:09;17.30;99.90
55642;DHT22;41509;53.108;6.100;2023-08-06T08:33:35;17.30;99.90
55642;DHT22;41509;53.108;6.100;2023-08-06T08:36:00;17.40;99.90
55642;DHT22;41509;53.108;6.100;2023-08-06T08:38:26;17.40;99.90
55642;DHT22;41509;53.108;6.100;2023-08-06T08:40:53;17.50;99.90
55642;DHT22;41509;53.108;6.100;2023-08-06T08:43:23;17.60;99.90
55642;DHT22;41509;53.108;6.100;2023-08-06T08:45:53;17.60;99.90
55642;DHT22;41509;53.108;6.100;2023-08-06T08:48:24;17.70;99.90
55642;DHT22;41509;53.108;6.100;2023-08-06T08:50:50;17.70;99.90
55642;DHT22;41509;53.108;6.100;2023-08-06T08:53:17;17.80;99.90
55642;DHT22;41509;53.108;6.100;2023-08-06T08:55:46;17.80;99.90
55642;DHT22;41509;53.108;6.100;2023-08-06T08:58:12;17.90;99.90
55642;DHT22;41509;53.108;6.100;2023-08-06T09:00:38;17.90;99.90
55642;DHT22;41509;53.108;6.100;2023-08-06T09:03:06;17.90;99.90
55642;DHT22;41509;53.108;6.100;2023-08-06T09:05:32;18.00;99.90
55642;DHT22;41509;53.108;6.100;2023-08-06T09:08:05;18.00;99.90
55642;DHT22;41509;53.108;6.100;2023-08-06T09:10:31;18.10;99.90
55642;DHT22;41509;53.108;6.100;2023-08-06T09:12:57;18.10;99.90
55642;DHT22;41509;53.108;6.100;2023-08-06T09:15:27;18.10;99.90
55642;DHT22;41509;53.108;6.100;2023-08-06T09:17:54;18.20;99.90
55642;DHT22;41509;53.108;6.100;2023-08-06T09:20:21;18.30;99.90
55642;DHT22;41509;53.108;6.100;2023-08-06T09:22:47;18.30;99.90
55642;DHT22;41509;53.108;6.100;2023-08-06T09:25:20;18.30;99.90
55642;DHT22;41509;53.108;6.100;2023-08-06T09:27:46;18.30;99.90
55642;DHT22;41509;53.108;6.100;2023-08-06T09:30:37;18.40;99.90
55642;DHT22;41509;53.108;6.100;2023-08-06T09:33:03;18.50;99.90
55642;DHT22;41509;53.108;6.100;2023-08-06T09:35:33;18.50;99.90
55642;DHT22;41509;53.108;6.100;2023-08-06T09:38:06;18.60;99.90
55642;DHT22;41509;53.108;6.100;2023-08-06T09:40:35;18.60;99.90
55642;DHT22;41509;53.108;6.100;2023-08-06T09:43:02;18.70;99.90
55642;DHT22;41509;53.108;6.100;2023-08-06T09:45:35;18.70;99.90
55642;DHT22;41509;53.108;6.100;2023-08-06T09:48:06;18.80;99.90
55642;DHT22;41509;53.108;6.100;2023-08-06T09:50:33;18.90;99.90
55642;DHT22;41509;53.108;6.100;2023-08-06T09:53:02;19.00;99.90
55642;DHT22;41509;53.108;6.100;2023-08-06T09:55:32;19.10;99.90
55642;DHT22;41509;53.108;6.100;2023-08-06T09:57:58;19.20;99.90
55642;DHT22;41509;53.108;6.100;2023-08-06T10:00:24;19.30;99.90
55642;DHT22;41509;53.108;6.100;2023-08-06T10:02:51;19.40;99.90
55642;DHT22;41509;53.108;6.100;2023-08-06T10:05:22;19.50;99.90
55642;DHT22;41509;53.108;6.100;2023-08-06T10:07:49;19.50;99.90
55642;DHT22;41509;53.108;6.100;2023-08-06T10:10:16;19.60;99.90
55642;DHT22;41509;53.108;6.100;2023-08-06T10:12:49;19.60;99.90
55642;DHT22;41509;53.108;6.100;2023-08-06T10:15:17;19.70;99.90
55642;DHT22;41509;53.108;6.100;2023-08-06T10:17:46;19.80;99.90
55642;DHT22;41509;53.108;6.100;2023-08-06T10:20:12;19.90;99.90
55642;DHT22;41509;53.108;6.100;2023-08-06T10:22:44;20.00;99.90
55642;DHT22;41509;53.108;6.100;2023-08-06T10:25:10;20.10;99.90
55642;DHT22;41509;53.108;6.100;2023-08-06T10:27:54;20.10;99.90
55642;DHT22;41509;53.108;6.100;2023-08-06T10:30:30;20.20;99.90
55642;DHT22;41509;53.108;6.100;2023-08-06T10:33:03;20.20;99.90
55642;DHT22;41509;53.108;6.100;2023-08-06T10:35:48;20.20;99.90
55642;DHT22;41509;53.108;6.100;2023-08-06T10:38:24;20.20;99.90
55642;DHT22;41509;53.108;6.100;2023-08-06T10:45:53;20.10;99.90
55642;DHT22;41509;53.108;6.100;2023-08-06T10:48:29;20.10;99.90
55642;DHT22;41509;53.108;6.100;2023-08-06T10:50:56;20.20;99.90
55642;DHT22;41509;53.108;6.100;2023-08-06T10:53:22;20.20;99.90
55642;DHT22;41509;53.108;6.100;2023-08-06T10:55:47;20.30;99.90
55642;DHT22;41509;53.108;6.100;2023-08-06T10:58:15;20.30;99.90
55642;DHT22;41509;53.108;6.100;2023-08-06T11:00:42;20.30;99.90
55642;DHT22;41509;53.108;6.100;2023-08-06T11:03:10;20.30;99.90
55642;DHT22;41509;53.108;6.100;2023-08-06T11:05:48;20.40;99.90
55642;DHT22;41509;53.108;6.100;2023-08-06T11:08:26;20.40;99.90
55642;DHT22;41509;53.108;6.100;2023-08-06T11:10:52;20.40;99.90
55642;DHT22;41509;53.108;6.100;2023-08-06T11:13:18;20.50;99.90
55642;DHT22;41509;53.108;6.100;2023-08-06T11:15:45;20.50;99.90
55642;DHT22;41509;53.108;6.100;2023-08-06T11:18:11;20.50;99.90
55642;DHT22;41509;53.108;6.100;2023-08-06T11:20:38;20.60;99.90
55642;DHT22;41509;53.108;6.100;2023-08-06T11:23:03;20.60;99.90
55642;DHT22;41509;53.108;6.100;2023-08-06T11:25:30;20.60;99.90
55642;DHT22;41509;53.108;6.100;2023-08-06T11:27:56;20.70;99.90
55642;DHT22;41509;53.108;6.100;2023-08-06T11:30:21;20.70;99.90
55642;DHT22;41509;53.108;6.100;2023-08-06T11:32:47;20.60;99.90
55642;DHT22;41509;53.108;6.100;2023-08-06T11:35:14;20.60;99.90
55642;DHT22;41509;53.108;6.100;2023-08-06T11:37:44;20.60;99.90
55642;DHT22;41509;53.108;6.100;2023-08-06T11:40:11;20.50;99.90
55642;DHT22;41509;53.108;6.100;2023-08-06T11:42:37;20.50;99.90
55642;DHT22;41509;53.108;6.100;2023-08-06T11:45:03;20.50;99.90
55642;DHT22;41509;53.108;6.100;2023-08-06T11:47:30;20.50;99.90
55642;DHT22;41509;53.108;6.100;2023-08-06T11:49:56;20.50;99.90
55642;DHT22;41509;53.108;6.100;2023-08-06T11:52:25;20.40;99.90
55642;DHT22;41509;53.108;6.100;2023-08-06T11:55:11;20.30;99.90
55642;DHT22;41509;53.108;6.100;2023-08-06T11:57:40;20.20;99.90
55642;DHT22;41509;53.108;6.100;2023-08-06T12:00:13;20.10;99.90
55642;DHT22;41509;53.108;6.100;2023-08-06T12:02:39;20.10;99.90
55642;DHT22;41509;53.108;6.100;2023-08-06T12:05:10;20.00;99.90
55642;DHT22;41509;53.108;6.100;2023-08-06T12:07:44;20.00;99.90
55642;DHT22;41509;53.108;6.100;2023-08-06T12:10:10;20.00;99.90
55642;DHT22;41509;53.108;6.100;2023-08-06T12:12:36;20.00;99.90
55642;DHT22;41509;53.108;6.100;2023-08-06T12:15:03;19.90;99.90
55642;DHT22;41509;53.108;6.100;2023-08-06T12:17:29;19.90;99.90
55642;DHT22;41509;53.108;6.100;2023-08-06T12:19:55;19.90;99.90
55642;DHT22;41509;53.108;6.100;2023-08-06T12:22:23;19.90;99.90
55642;DHT22;41509;53.108;6.100;2023-08-06T12:24:49;20.00;99.90
55642;DHT22;41509;53.108;6.100;2023-08-06T12:27:15;20.10;99.90
55642;DHT22;41509;53.108;6.100;2023-08-06T12:29:49;20.10;99.90
55642;DHT22;41509;53.108;6.100;2023-08-06T12:32:15;20.30;99.90
55642;DHT22;41509;53.108;6.100;2023-08-06T12:34:41;20.40;99.90
55642;DHT22;41509;53.108;6.100;2023-08-06T12:37:07;20.40;99.90
55642;DHT22;41509;53.108;6.100;2023-08-06T12:39:34;20.50;99.90
55642;DHT22;41509;53.108;6.100;2023-08-06T12:42:00;20.40;99.90
55642;DHT22;41509;53.108;6.100;2023-08-06T12:44:29;20.30;99.90
55642;DHT22;41509;53.108;6.100;2023-08-06T12:46:55;20.30;99.90
55642;DHT22;41509;53.108;6.100;2023-08-06T12:49:21;20.20;99.90
55642;DHT22;41509;53.108;6.100;2023-08-06T12:51:47;20.20;99.90
55642;DHT22;41509;53.108;6.100;2023-08-06T12:54:12;20.10;99.90
55642;DHT22;41509;53.108;6.100;2023-08-06T12:56:38;20.10;99.90
55642;DHT22;41509;53.108;6.100;2023-08-06T12:59:04;20.00;99.90
55642;DHT22;41509;53.108;6.100;2023-08-06T13:01:29;20.10;99.90
55642;DHT22;41509;53.108;6.100;2023-08-06T13:03:55;20.10;99.90
55642;DHT22;41509;53.108;6.100;2023-08-06T13:06:21;20.30;99.90
55642;DHT22;41509;53.108;6.100;2023-08-06T13:08:46;20.60;99.90
55642;DHT22;41509;53.108;6.100;2023-08-06T13:11:12;20.80;99.90
55642;DHT22;41509;53.108;6.100;2023-08-06T13:13:38;20.90;99.90
55642;DHT22;41509;53.108;6.100;2023-08-06T13:16:03;20.90;99.90
55642;DHT22;41509;53.108;6.100;2023-08-06T13:18:29;20.90;99.90
55642;DHT22;41509;53.108;6.100;2023-08-06T13:20:56;20.90;99.90
55642;DHT22;41509;53.108;6.100;2023-08-06T13:23:22;21.10;99.90
55642;DHT22;41509;53.108;6.100;2023-08-06T13:25:47;21.20;99.90
55642;DHT22;41509;53.108;6.100;2023-08-06T13:28:13;21.40;99.90
55642;DHT22;41509;53.108;6.100;2023-08-06T13:30:42;21.50;99.90
55642;DHT22;41509;53.108;6.100;2023-08-06T13:33:08;21.70;99.90
55642;DHT22;41509;53.108;6.100;2023-08-06T13:35:34;21.90;99.90
55642;DHT22;41509;53.108;6.100;2023-08-06T13:37:59;22.10;99.90
55642;DHT22;41509;53.108;6.100;2023-08-06T13:40:25;22.20;99.90
55642;DHT22;41509;53.108;6.100;2023-08-06T13:42:51;22.20;99.90
55642;DHT22;41509;53.108;6.100;2023-08-06T13:45:16;22.20;99.90
55642;DHT22;41509;53.108;6.100;2023-08-06T13:47:42;22.30;99.90
55642;DHT22;41509;53.108;6.100;2023-08-06T13:50:07;22.20;99.90
55642;DHT22;41509;53.108;6.100;2023-08-06T13:52:33;22.10;99.90
55642;DHT22;41509;53.108;6.100;2023-08-06T13:55:01;22.00;99.90
55642;DHT22;41509;53.108;6.100;2023-08-06T13:57:29;22.00;99.90
55642;DHT22;41509;53.108;6.100;2023-08-06T13:59:55;22.00;99.90
55642;DHT22;41509;53.108;6.100;2023-08-06T14:02:20;22.10;99.90
55642;DHT22;41509;53.108;6.100;2023-08-06T14:04:46;22.20;99.90
55642;DHT22;41509;53.108;6.100;2023-08-06T14:07:12;22.20;99.90
55642;DHT22;41509;53.108;6.100;2023-08-06T14:09:37;22.30;99.90
55642;DHT22;41509;53.108;6.100;2023-08-06T14:12:04;22.40;99.90
55642;DHT22;41509;53.108;6.100;2023-08-06T14:14:30;22.60;99.90
55642;DHT22;41509;53.108;6.100;2023-08-06T14:16:56;22.80;99.90
55642;DHT22;41509;53.108;6.100;2023-08-06T14:19:22;22.70;99.90
55642;DHT22;41509;53.108;6.100;2023-08-06T14:21:47;22.50;99.90
55642;DHT22;41509;53.108;6.100;2023-08-06T14:24:13;22.20;99.90
55642;DHT22;41509;53.108;6.100;2023-08-06T14:26:39;22.00;99.90
55642;DHT22;41509;53.108;6.100;2023-08-06T14:29:04;21.80;99.90
55642;DHT22;41509;53.108;6.100;2023-08-06T14:31:30;21.50;99.90
55642;DHT22;41509;53.108;6.100;2023-08-06T14:33:59;21.30;99.90
55642;DHT22;41509;53.108;6.100;2023-08-06T14:36:26;21.20;99.90
55642;DHT22;41509;53.108;6.100;2023-08-06T14:38:51;21.30;99.90
55642;DHT22;41509;53.108;6.100;2023-08-06T14:41:17;21.20;99.90
55642;DHT22;41509;53.108;6.100;2023-08-06T14:43:43;21.10;99.90
55642;DHT22;41509;53.108;6.100;2023-08-06T14:46:08;21.20;99.90
55642;DHT22;41509;53.108;6.100;2023-08-06T14:48:34;21.40;99.90
55642;DHT22;41509;53.108;6.100;2023-08-06T14:51:00;21.50;99.90
55642;DHT22;41509;53.108;6.100;2023-08-06T14:53:26;21.70;99.90
55642;DHT22;41509;53.108;6.100;2023-08-06T14:55:52;21.90;99.90
55642;DHT22;41509;53.108;6.100;2023-08-06T14:58:17;21.90;99.90
55642;DHT22;41509;53.108;6.100;2023-08-06T15:00:44;22.00;99.90
55642;DHT22;41509;53.108;6.100;2023-08-06T15:03:10;22.10;99.90
55642;DHT22;41509;53.108;6.100;2023-08-06T15:05:36;22.10;99.90
55642;DHT22;41509;53.108;6.100;2023-08-06T15:08:01;22.10;99.90
55642;DHT22;41509;53.108;6.100;2023-08-06T15:10:27;22.20;99.90
55642;DHT22;41509;53.108;6.100;2023-08-06T15:12:53;22.20;99.90
55642;DHT22;41509;53.108;6.100;2023-08-06T15:15:18;22.10;99.90
55642;DHT22;41509;53.108;6.100;2023-08-06T15:17:44;22.00;99.90
55642;DHT22;41509;53.108;6.100;2023-08-06T15:20:10;21.90;99.90
55642;DHT22;41509;53.108;6.100;2023-08-06T15:22:36;21.60;99.90
55642;DHT22;41509;53.108;6.100;2023-08-06T15:25:01;21.50;99.90
55642;DHT22;41509;53.108;6.100;2023-08-06T15:27:28;21.30;99.90
55642;DHT22;41509;53.108;6.100;2023-08-06T15:29:53;21.10;99.90
55642;DHT22;41509;53.108;6.100;2023-08-06T15:32:19;21.00;99.90
55642;DHT22;41509;53.108;6.100;2023-08-06T15:34:46;20.80;99.90